createdAt,value
2022-10-17T00:01:03.685Z,15.38
2022-10-17T00:03:41.166Z,15.24
2022-10-17T00:06:18.128Z,15.31
2022-10-17T00:08:50.553Z,15.24
2022-10-17T00:11:27.409Z,15.44
2022-10-17T00:14:01.271Z,15.38
2022-10-17T00:16:38.093Z,15.40
2022-10-17T00:19:12.141Z,15.21
2022-10-17T00:21:45.385Z,15.23
2022-10-17T00:24:18.432Z,15.34
2022-10-17T00:26:56.463Z,15.48
2022-10-17T00:29:28.652Z,15.33
2022-10-17T00:32:01.728Z,15.39
2022-10-17T00:34:34.942Z,15.10
2022-10-17T00:37:07.176Z,14.89
2022-10-17T00:39:39.087Z,14.95
2022-10-17T00:42:16.608Z,15.06
2022-10-17T00:45:06.345Z,15.09
2022-10-17T00:47:40.017Z,15.17
2022-10-17T00:50:13.967Z,15.17
2022-10-17T00:52:47.982Z,15.20
2022-10-17T00:55:24.019Z,15.45
2022-10-17T00:58:00.561Z,15.33
2022-10-17T01:00:32.386Z,15.20
2022-10-17T01:03:04.623Z,15.19
2022-10-17T01:05:36.728Z,15.31
2022-10-17T01:08:09.981Z,15.33
2022-10-17T01:10:56.117Z,15.33
2022-10-17T01:13:39.620Z,15.35
2022-10-17T01:16:17.153Z,15.38
2022-10-17T01:18:59.532Z,15.15
2022-10-17T01:21:49.208Z,15.14
2022-10-17T01:24:50.313Z,15.06
2022-10-17T01:27:47.187Z,15.07
2022-10-17T01:30:57.444Z,15.00
2022-10-17T01:33:42.769Z,14.98
2022-10-17T01:36:20.738Z,14.90
2022-10-17T01:38:56.406Z,15.02
2022-10-17T01:41:37.570Z,15.09
2022-10-17T01:44:15.673Z,14.94
2022-10-17T01:46:52.233Z,15.04
2022-10-17T01:49:30.721Z,14.97
2022-10-17T01:52:07.253Z,14.86
2022-10-17T01:54:44.755Z,14.74
2022-10-17T01:57:22.062Z,14.63
2022-10-17T02:00:03.573Z,14.60
2022-10-17T02:02:43.045Z,14.62
2022-10-17T02:05:17.052Z,14.65
2022-10-17T02:07:48.480Z,14.61
2022-10-17T02:10:29.479Z,14.67
2022-10-17T02:13:17.947Z,14.66
2022-10-17T02:16:21.013Z,14.63
2022-10-17T02:19:09.246Z,14.57
2022-10-17T02:21:53.166Z,14.41
2022-10-17T02:24:36.763Z,14.48
2022-10-17T02:27:15.494Z,14.54
2022-10-17T02:29:52.629Z,14.50
2022-10-17T02:32:29.221Z,14.43
2022-10-17T02:35:03.423Z,14.30
2022-10-17T02:37:39.627Z,14.40
2022-10-17T02:40:14.559Z,14.54
2022-10-17T02:42:48.691Z,14.53
2022-10-17T02:45:22.033Z,14.37
2022-10-17T02:47:59.166Z,14.62
2022-10-17T02:50:39.175Z,14.62
2022-10-17T02:53:18.482Z,14.61
2022-10-17T02:55:58.004Z,14.54
2022-10-17T02:58:34.415Z,14.57
2022-10-17T03:01:08.243Z,14.70
2022-10-17T03:03:39.218Z,14.50
2022-10-17T03:06:10.580Z,14.47
2022-10-17T03:08:44.105Z,14.51
2022-10-17T03:11:16.127Z,14.35
2022-10-17T03:13:47.161Z,14.33
2022-10-17T03:16:18.629Z,14.40
2022-10-17T03:18:50.270Z,14.62
2022-10-17T03:21:22.629Z,14.66
2022-10-17T03:23:56.799Z,14.64
2022-10-17T03:26:29.912Z,14.45
2022-10-17T03:29:01.382Z,14.44
2022-10-17T03:31:33.428Z,14.50
2022-10-17T03:34:05.656Z,14.52
2022-10-17T03:36:37.375Z,14.81
2022-10-17T03:39:11.713Z,14.67
2022-10-17T03:41:43.631Z,14.81
2022-10-17T03:44:14.871Z,14.88
2022-10-17T03:46:46.859Z,14.61
2022-10-17T03:49:18.382Z,14.67
2022-10-17T03:51:50.153Z,14.64
2022-10-17T03:54:24.400Z,14.69
2022-10-17T03:59:28.651Z,14.68
2022-10-17T04:02:00.626Z,14.62
2022-10-17T04:04:31.946Z,14.63
2022-10-17T04:07:03.681Z,14.61
2022-10-17T04:09:37.666Z,14.61
2022-10-17T04:12:09.313Z,14.54
2022-10-17T04:14:41.424Z,14.68
2022-10-17T04:17:13.105Z,14.63
2022-10-17T04:19:44.401Z,14.59
2022-10-17T04:22:16.197Z,14.41
2022-10-17T04:24:51.351Z,14.47
2022-10-17T04:27:23.161Z,14.49
2022-10-17T04:29:54.498Z,14.55
2022-10-17T04:32:26.710Z,14.46
2022-10-17T04:34:58.337Z,14.46
2022-10-17T04:37:32.639Z,14.51
2022-10-17T04:40:07.209Z,14.47
2022-10-17T04:42:38.885Z,14.45
2022-10-17T04:45:16.571Z,14.44
2022-10-17T04:47:48.082Z,14.49
2022-10-17T04:50:22.975Z,14.51
2022-10-17T04:52:54.654Z,14.52
2022-10-17T04:55:31.178Z,14.37
2022-10-17T04:58:04.151Z,14.46
2022-10-17T05:00:36.809Z,14.41
2022-10-17T05:03:12.113Z,14.85
2022-10-17T05:05:46.465Z,14.38
2022-10-17T05:08:18.352Z,14.41
2022-10-17T05:10:55.529Z,14.47
2022-10-17T05:13:27.208Z,14.45
2022-10-17T05:16:02.048Z,14.31
2022-10-17T05:18:33.609Z,14.31
2022-10-17T05:21:06.080Z,14.35
2022-10-17T05:23:37.897Z,14.22
2022-10-17T05:26:15.688Z,14.29
2022-10-17T05:28:47.545Z,14.22
2022-10-17T05:31:19.018Z,14.42
2022-10-17T05:33:53.663Z,14.33
2022-10-17T05:36:28.127Z,14.31
2022-10-17T05:38:59.730Z,14.51
2022-10-17T05:41:34.008Z,14.30
2022-10-17T05:44:05.906Z,14.31
2022-10-17T05:46:40.331Z,14.25
2022-10-17T05:49:19.542Z,14.23
2022-10-17T05:52:04.412Z,14.21
2022-10-17T05:54:36.241Z,14.12
2022-10-17T05:57:10.259Z,14.28
2022-10-17T05:59:43.561Z,14.61
2022-10-17T06:02:16.317Z,14.52
2022-10-17T06:04:49.442Z,14.81
2022-10-17T06:07:21.597Z,14.68
2022-10-17T06:09:54.098Z,14.69
2022-10-17T06:12:29.244Z,14.84
2022-10-17T06:15:02.157Z,14.81
2022-10-17T06:17:34.494Z,15.03
2022-10-17T06:20:07.656Z,15.04
2022-10-17T06:22:39.697Z,15.00
2022-10-17T06:25:13.153Z,14.92
2022-10-17T06:27:48.023Z,15.05
2022-10-17T06:30:20.814Z,15.07
2022-10-17T06:32:53.154Z,15.01
2022-10-17T06:35:25.776Z,14.91
2022-10-17T06:37:58.157Z,14.98
2022-10-17T06:40:30.554Z,15.05
2022-10-17T06:43:04.694Z,15.27
2022-10-17T06:45:36.553Z,14.99
2022-10-17T06:48:09.404Z,14.92
2022-10-17T06:50:41.294Z,15.05
2022-10-17T06:53:12.808Z,15.14
2022-10-17T06:55:44.628Z,15.17
2022-10-17T06:58:18.885Z,15.26
2022-10-17T07:00:50.920Z,15.28
2022-10-17T07:03:22.461Z,15.14
2022-10-17T07:05:56.627Z,15.26
2022-10-17T07:08:28.912Z,15.35
2022-10-17T07:11:01.355Z,15.56
2022-10-17T07:13:38.926Z,15.63
2022-10-17T07:16:11.741Z,15.44
2022-10-17T07:18:43.763Z,15.61
2022-10-17T07:21:15.619Z,15.79
2022-10-17T07:23:47.295Z,15.88
2022-10-17T07:26:22.954Z,16.15
2022-10-17T07:28:58.527Z,16.54
2022-10-17T07:31:30.465Z,16.75
2022-10-17T07:34:03.495Z,16.63
2022-10-17T07:36:36.303Z,16.91
2022-10-17T07:39:08.767Z,16.67
2022-10-17T07:41:41.610Z,16.93
2022-10-17T07:44:16.844Z,16.75
2022-10-17T07:46:49.764Z,16.87
2022-10-17T07:49:22.146Z,16.75
2022-10-17T07:51:55.107Z,16.98
2022-10-17T07:54:27.838Z,17.14
2022-10-17T07:57:00.825Z,17.30
2022-10-17T07:59:36.746Z,17.27
2022-10-17T08:02:10.826Z,17.53
2022-10-17T08:04:43.266Z,17.50
2022-10-17T08:07:22.992Z,17.65
2022-10-17T08:09:57.630Z,17.77
2022-10-17T08:12:32.659Z,18.12
2022-10-17T08:15:11.265Z,18.07
2022-10-17T08:17:43.329Z,18.17
2022-10-17T08:20:15.666Z,18.61
2022-10-17T08:22:55.046Z,18.63
2022-10-17T08:25:26.558Z,18.73
2022-10-17T08:27:58.531Z,18.93
2022-10-17T08:30:33.139Z,19.08
2022-10-17T08:33:04.741Z,19.44
2022-10-17T08:35:36.061Z,19.75
2022-10-17T08:38:12.230Z,20.68
2022-10-17T08:40:45.561Z,21.37
2022-10-17T08:43:35.644Z,22.16
2022-10-17T08:46:11.991Z,22.99
2022-10-17T08:48:46.726Z,23.32
2022-10-17T08:51:23.096Z,23.55
2022-10-17T08:53:58.607Z,24.29
2022-10-17T08:56:48.149Z,24.52
2022-10-17T08:59:30.135Z,24.83
2022-10-17T09:02:07.912Z,24.80
2022-10-17T09:04:54.131Z,24.91
2022-10-17T09:07:32.934Z,25.06
2022-10-17T09:10:13.216Z,25.17
2022-10-17T09:12:55.794Z,24.91
2022-10-17T09:15:41.522Z,24.85
2022-10-17T09:18:24.045Z,25.03
2022-10-17T09:20:59.051Z,25.40
2022-10-17T09:23:36.144Z,25.67
2022-10-17T09:26:14.296Z,25.77
2022-10-17T09:28:47.257Z,26.08
2022-10-17T09:31:27.327Z,26.03
2022-10-17T09:34:05.556Z,26.30
2022-10-17T09:36:39.315Z,25.74
2022-10-17T09:39:18.557Z,26.49
2022-10-17T09:41:53.808Z,26.84
2022-10-17T09:44:27.587Z,26.01
2022-10-17T09:47:19.630Z,25.43
2022-10-17T09:49:54.567Z,26.00
2022-10-17T09:52:33.364Z,25.96
2022-10-17T09:55:08.723Z,26.30
2022-10-17T09:57:57.237Z,26.01
2022-10-17T10:00:31.934Z,26.18
2022-10-17T10:03:17.700Z,26.25
2022-10-17T10:06:08.647Z,26.43
2022-10-17T10:08:52.096Z,26.10
2022-10-17T10:11:28.967Z,26.59
2022-10-17T10:14:15.475Z,27.04
2022-10-17T10:16:48.484Z,27.05
2022-10-17T10:19:29.253Z,27.00
2022-10-17T10:22:06.030Z,26.67
2022-10-17T10:24:37.788Z,26.07
2022-10-17T10:27:14.864Z,26.24
2022-10-17T10:29:53.352Z,26.30
2022-10-17T10:32:28.308Z,26.81
2022-10-17T10:35:04.137Z,26.72
2022-10-17T10:37:43.702Z,26.90
2022-10-17T10:40:21.661Z,26.89
2022-10-17T10:42:56.128Z,27.09
2022-10-17T10:48:40.589Z,28.00
2022-10-17T10:51:22.956Z,27.71
2022-10-17T10:54:02.981Z,27.57
2022-10-17T10:56:44.795Z,27.83
2022-10-17T10:59:25.920Z,27.79
2022-10-17T11:02:05.995Z,27.69
2022-10-17T11:04:45.799Z,27.13
2022-10-17T11:07:25.443Z,26.85
2022-10-17T11:10:06.322Z,27.62
2022-10-17T11:15:25.639Z,26.35
2022-10-17T11:18:03.155Z,26.93
2022-10-17T11:20:44.403Z,27.03
2022-10-17T11:23:24.404Z,27.29
2022-10-17T11:26:03.238Z,26.74
2022-10-17T11:28:37.176Z,26.72
2022-10-17T11:31:15.996Z,26.77
2022-10-17T11:33:52.247Z,25.91
2022-10-17T11:36:33.484Z,26.05
2022-10-17T11:39:09.885Z,25.79
2022-10-17T11:41:48.714Z,25.40
2022-10-17T11:44:26.597Z,25.31
2022-10-17T11:47:03.599Z,25.48
2022-10-17T11:49:41.868Z,25.39
2022-10-17T11:52:51.225Z,25.93
2022-10-17T11:55:25.048Z,25.76
2022-10-17T11:58:16.284Z,25.84
2022-10-17T12:01:00.092Z,25.35
2022-10-17T12:04:00.949Z,25.54
2022-10-17T12:06:49.157Z,25.58
2022-10-17T12:09:38.851Z,25.33
2022-10-17T12:12:11.763Z,25.32
2022-10-17T12:14:51.160Z,25.10
2022-10-17T12:17:33.378Z,25.12
2022-10-17T12:20:31.360Z,25.55
2022-10-17T12:23:24.519Z,25.45
2022-10-17T12:26:01.521Z,25.45
2022-10-17T12:28:44.312Z,25.63
2022-10-17T12:31:33.316Z,25.28
2022-10-17T12:34:08.975Z,25.22
2022-10-17T12:36:42.494Z,25.35
2022-10-17T12:39:56.295Z,25.29
2022-10-17T12:42:36.630Z,24.94
2022-10-17T12:45:38.868Z,25.05
2022-10-17T12:48:15.949Z,25.06
2022-10-17T12:54:03.231Z,24.93
2022-10-17T12:56:40.745Z,24.87
2022-10-17T12:59:19.791Z,25.09
2022-10-17T13:01:54.664Z,25.08
2022-10-17T13:04:30.273Z,24.91
2022-10-17T13:07:03.548Z,24.94
2022-10-17T13:09:39.008Z,24.91
2022-10-17T13:12:17.546Z,25.01
2022-10-17T13:14:51.146Z,24.97
2022-10-17T13:17:29.716Z,25.08
2022-10-17T13:20:04.992Z,25.08
2022-10-17T13:22:37.750Z,24.98
2022-10-17T13:25:12.108Z,24.99
2022-10-17T13:27:44.361Z,25.06
2022-10-17T13:30:31.179Z,25.08
2022-10-17T13:33:05.337Z,25.21
2022-10-17T13:35:59.345Z,25.21
2022-10-17T13:38:37.811Z,25.17
2022-10-17T13:41:35.492Z,25.21
2022-10-17T13:44:16.266Z,25.24
2022-10-17T13:46:48.903Z,25.02
2022-10-17T13:49:26.214Z,25.09
2022-10-17T13:52:04.591Z,25.11
2022-10-17T13:54:41.063Z,25.12
2022-10-17T13:57:22.947Z,25.16
2022-10-17T13:59:58.945Z,25.06
2022-10-17T14:02:32.703Z,25.18
2022-10-17T14:05:23.119Z,24.77
2022-10-17T14:08:11.764Z,25.20
2022-10-17T14:10:46.904Z,24.92
2022-10-17T14:13:40.863Z,25.03
2022-10-17T14:16:13.305Z,24.77
2022-10-17T14:18:47.823Z,24.70
2022-10-17T14:24:32.505Z,24.95
2022-10-17T14:27:05.147Z,24.90
2022-10-17T14:29:55.035Z,24.74
2022-10-17T14:32:27.489Z,24.71
2022-10-17T14:35:18.203Z,24.68
2022-10-17T14:37:56.153Z,24.73
2022-10-17T14:40:32.833Z,24.73
2022-10-17T14:43:09.279Z,24.55
2022-10-17T14:45:43.102Z,24.46
2022-10-17T14:48:20.521Z,24.38
2022-10-17T14:51:15.093Z,24.29
2022-10-17T14:54:05.216Z,24.29
2022-10-17T14:56:45.846Z,24.00
2022-10-17T14:59:51.663Z,24.11
2022-10-17T15:02:18.530Z,23.83
2022-10-17T15:04:51.211Z,23.68
2022-10-17T15:07:24.534Z,23.80
2022-10-17T15:09:57.518Z,23.50
2022-10-17T15:12:33.122Z,23.58
2022-10-17T15:15:05.854Z,23.39
2022-10-17T15:17:38.343Z,23.24
2022-10-17T15:20:18.274Z,23.18
2022-10-17T15:22:50.475Z,23.12
2022-10-17T15:25:24.155Z,23.11
2022-10-17T15:27:59.797Z,22.98
2022-10-17T15:30:35.018Z,22.91
2022-10-17T15:33:08.035Z,22.88
2022-10-17T15:35:43.752Z,22.78
2022-10-17T15:38:20.391Z,22.89
2022-10-17T15:40:52.870Z,22.71
2022-10-17T15:43:27.871Z,22.63
2022-10-17T15:46:00.456Z,22.70
2022-10-17T15:48:35.054Z,22.70
2022-10-17T15:51:08.037Z,22.65
2022-10-17T15:53:41.156Z,22.33
2022-10-17T15:56:24.074Z,22.25
2022-10-17T15:58:59.753Z,22.26
2022-10-17T16:01:34.914Z,22.41
2022-10-17T16:04:07.153Z,22.01
2022-10-17T16:06:39.755Z,21.95
2022-10-17T16:09:12.355Z,21.81
2022-10-17T16:11:47.494Z,21.80
2022-10-17T16:14:22.374Z,21.74
2022-10-17T16:16:54.893Z,22.02
2022-10-17T16:19:27.615Z,21.66
2022-10-17T16:22:04.346Z,21.56
2022-10-17T16:24:42.960Z,21.65
2022-10-17T16:27:15.528Z,21.39
2022-10-17T16:29:50.518Z,21.47
2022-10-17T16:32:23.206Z,21.39
2022-10-17T16:34:55.439Z,21.55
2022-10-17T16:37:28.117Z,21.36
2022-10-17T16:40:00.917Z,21.21
2022-10-17T16:42:33.681Z,21.19
2022-10-17T16:45:09.477Z,21.23
2022-10-17T16:47:41.920Z,21.22
2022-10-17T16:50:14.882Z,21.20
2022-10-17T16:52:47.477Z,21.09
2022-10-17T16:55:21.684Z,21.11
2022-10-17T16:58:01.803Z,21.08
2022-10-17T17:00:37.145Z,20.98
2022-10-17T17:03:10.196Z,20.85
2022-10-17T17:05:42.519Z,20.74
2022-10-17T17:08:15.117Z,20.68
2022-10-17T17:10:50.400Z,20.65
2022-10-17T17:13:23.118Z,20.62
2022-10-17T17:16:06.005Z,20.49
2022-10-17T17:18:39.279Z,20.48
2022-10-17T17:21:13.553Z,20.43
2022-10-17T17:23:47.110Z,20.41
2022-10-17T17:26:21.278Z,20.38
2022-10-17T17:28:54.456Z,20.50
2022-10-17T17:31:31.174Z,20.53
2022-10-17T17:34:04.450Z,20.35
2022-10-17T17:36:39.616Z,20.29
2022-10-17T17:39:15.087Z,20.22
2022-10-17T17:41:47.807Z,20.22
2022-10-17T17:44:20.006Z,20.16
2022-10-17T17:46:54.564Z,20.14
2022-10-17T17:49:26.786Z,20.05
2022-10-17T17:51:58.657Z,20.05
2022-10-17T17:54:31.132Z,19.96
2022-10-17T17:57:02.944Z,20.00
2022-10-17T17:59:34.965Z,19.82
2022-10-17T18:02:09.741Z,19.79
2022-10-17T18:04:41.846Z,19.72
2022-10-17T18:07:13.709Z,19.69
2022-10-17T18:09:45.862Z,19.58
2022-10-17T18:12:17.787Z,19.51
2022-10-17T18:14:50.986Z,19.53
2022-10-17T18:17:26.326Z,19.48
2022-10-17T18:19:58.188Z,19.42
2022-10-17T18:22:29.871Z,19.38
2022-10-17T18:25:02.065Z,19.31
2022-10-17T18:27:33.704Z,19.24
2022-10-17T18:30:06.165Z,19.12
2022-10-17T18:32:40.943Z,19.09
2022-10-17T18:35:13.407Z,19.04
2022-10-17T18:37:45.007Z,19.19
2022-10-17T18:40:16.903Z,19.17
2022-10-17T18:42:48.445Z,19.45
2022-10-17T18:45:20.544Z,19.22
2022-10-17T18:47:55.345Z,19.02
2022-10-17T18:50:28.364Z,19.12
2022-10-17T18:52:59.863Z,18.96
2022-10-17T18:55:32.203Z,18.93
2022-10-17T18:58:03.898Z,18.83
2022-10-17T19:00:35.746Z,18.77
2022-10-17T19:03:09.945Z,18.65
2022-10-17T19:05:41.975Z,18.62
2022-10-17T19:08:14.068Z,18.62
2022-10-17T19:10:46.222Z,18.57
2022-10-17T19:13:21.465Z,18.54
2022-10-17T19:15:53.793Z,18.53
2022-10-17T19:18:27.973Z,18.52
2022-10-17T19:21:05.016Z,18.52
2022-10-17T19:23:37.464Z,18.48
2022-10-17T19:26:11.313Z,18.40
2022-10-17T19:28:44.538Z,18.40
2022-10-17T19:31:18.143Z,18.31
2022-10-17T19:33:53.792Z,18.31
2022-10-17T19:36:30.755Z,18.34
2022-10-17T19:39:07.148Z,18.18
2022-10-17T19:41:39.148Z,18.17
2022-10-17T19:44:10.847Z,18.07
2022-10-17T19:46:44.607Z,18.16
2022-10-17T19:49:20.792Z,18.08
2022-10-17T19:51:52.608Z,18.18
2022-10-17T19:54:24.246Z,17.97
2022-10-17T19:56:56.109Z,18.06
2022-10-17T19:59:27.879Z,17.93
2022-10-17T20:01:59.762Z,17.86
2022-10-17T20:04:34.232Z,17.82
2022-10-17T20:07:06.011Z,17.84
2022-10-17T20:09:37.471Z,17.80
2022-10-17T20:12:09.410Z,17.78
2022-10-17T20:14:41.314Z,17.76
2022-10-17T20:17:13.569Z,17.66
2022-10-17T20:19:48.229Z,17.67
2022-10-17T20:22:30.537Z,17.65
2022-10-17T20:25:03.191Z,17.65
2022-10-17T20:27:35.408Z,17.62
2022-10-17T20:30:08.609Z,17.59
2022-10-17T20:32:40.950Z,17.53
2022-10-17T20:35:15.568Z,17.58
2022-10-17T20:37:47.788Z,17.51
2022-10-17T20:40:35.829Z,17.43
2022-10-17T20:43:10.091Z,17.47
2022-10-17T20:45:51.797Z,17.58
2022-10-17T20:48:24.730Z,17.48
2022-10-17T20:50:59.231Z,17.52
2022-10-17T20:53:37.079Z,17.41
2022-10-17T20:56:24.316Z,17.45
2022-10-17T20:58:58.050Z,17.43
2022-10-17T21:01:30.806Z,17.43
2022-10-17T21:04:26.931Z,17.46
2022-10-17T21:06:57.909Z,17.43
2022-10-17T21:09:30.109Z,17.27
2022-10-17T21:12:02.714Z,17.30
2022-10-17T21:14:36.609Z,17.26
2022-10-17T21:17:08.888Z,17.23
2022-10-17T21:19:41.191Z,17.16
2022-10-17T21:22:15.628Z,17.22
2022-10-17T21:24:47.869Z,17.16
2022-10-17T21:27:21.808Z,17.15
2022-10-17T21:29:54.243Z,17.10
2022-10-17T21:32:47.281Z,17.02
2022-10-17T21:35:18.459Z,17.01
2022-10-17T21:37:54.070Z,16.99
2022-10-17T21:40:26.177Z,16.87
2022-10-17T21:42:58.050Z,16.95
2022-10-17T21:45:31.968Z,16.84
2022-10-17T21:48:13.643Z,16.74
2022-10-17T21:50:46.059Z,16.78
2022-10-17T21:53:20.690Z,16.70
2022-10-17T21:55:52.991Z,16.59
2022-10-17T21:58:24.987Z,16.61
2022-10-17T22:00:57.599Z,16.62
2022-10-17T22:03:30.189Z,16.57
2022-10-17T22:06:12.942Z,16.54
2022-10-17T22:08:57.996Z,16.49
2022-10-17T22:11:32.219Z,16.51
2022-10-17T22:14:06.814Z,16.45
2022-10-17T22:16:39.067Z,16.63
2022-10-17T22:19:15.970Z,16.48
2022-10-17T22:21:49.769Z,16.49
2022-10-17T22:24:25.151Z,16.50
2022-10-17T22:26:57.388Z,16.59
2022-10-17T22:29:30.530Z,16.59
2022-10-17T22:32:18.650Z,16.59
2022-10-17T22:34:57.990Z,16.63
2022-10-17T22:37:30.990Z,16.80
2022-10-17T22:40:05.142Z,16.89
2022-10-17T22:42:36.658Z,16.89
2022-10-17T22:45:11.698Z,16.79
2022-10-17T22:47:43.563Z,16.85
2022-10-17T22:50:15.540Z,16.95
2022-10-17T22:52:47.588Z,17.00
2022-10-17T22:55:22.114Z,16.97
2022-10-17T22:57:54.237Z,16.93
2022-10-17T23:00:26.023Z,16.91
2022-10-17T23:02:58.502Z,16.94
2022-10-17T23:05:30.528Z,16.93
2022-10-17T23:08:02.811Z,16.99
2022-10-17T23:10:37.655Z,17.00
2022-10-17T23:13:09.777Z,16.99
2022-10-17T23:15:41.554Z,16.95
2022-10-17T23:18:14.906Z,16.99
2022-10-17T23:20:47.085Z,17.00
2022-10-17T23:23:20.174Z,17.04
2022-10-17T23:25:54.613Z,17.13
2022-10-17T23:28:26.647Z,17.11
2022-10-17T23:30:58.344Z,17.12
2022-10-17T23:33:30.365Z,17.25
2022-10-17T23:36:01.906Z,17.30
2022-10-17T23:38:33.922Z,17.42
2022-10-17T23:41:08.355Z,17.37
2022-10-17T23:43:40.794Z,17.50
2022-10-17T23:46:13.034Z,17.48
2022-10-17T23:48:45.296Z,17.42
2022-10-17T23:51:17.093Z,17.52
2022-10-17T23:53:49.144Z,17.59
2022-10-17T23:56:23.405Z,17.75
2022-10-17T23:58:55.394Z,17.69
